createdAt,value
2023-11-07T00:00:02.211Z,10.40
2023-11-07T00:02:35.011Z,10.30
2023-11-07T00:05:04.150Z,10.30
2023-11-07T00:07:32.081Z,10.20
2023-11-07T00:09:59.937Z,10.20
2023-11-07T00:12:27.728Z,10.14
2023-11-07T00:14:55.792Z,10.10
2023-11-07T00:17:23.585Z,10.02
2023-11-07T00:19:51.451Z,10.00
2023-11-07T00:22:19.473Z,9.90
2023-11-07T00:24:48.398Z,9.90
2023-11-07T00:27:19.803Z,9.80
2023-11-07T00:29:48.098Z,9.80
2023-11-07T00:32:16.135Z,9.70
2023-11-07T00:34:44.102Z,9.70
2023-11-07T00:37:11.866Z,9.62
2023-11-07T00:39:39.642Z,9.60
2023-11-07T00:42:07.521Z,9.58
2023-11-07T00:44:35.352Z,9.50
2023-11-07T00:47:03.951Z,9.50
2023-11-07T00:49:31.688Z,9.40
2023-11-07T00:52:00.941Z,9.38
2023-11-07T00:54:29.038Z,9.30
2023-11-07T00:56:56.943Z,9.20
2023-11-07T00:59:24.843Z,9.20
2023-11-07T01:01:52.608Z,9.10
2023-11-07T01:04:20.553Z,9.10
2023-11-07T01:06:48.772Z,9.00
2023-11-07T01:09:17.856Z,9.00
2023-11-07T01:11:45.672Z,8.90
2023-11-07T01:14:13.499Z,8.90
2023-11-07T01:16:41.308Z,8.90
2023-11-07T01:19:09.145Z,8.80
2023-11-07T01:21:37.036Z,8.80
2023-11-07T01:24:06.237Z,8.80
2023-11-07T01:26:34.005Z,8.70
2023-11-07T01:29:01.771Z,8.70
2023-11-07T01:31:29.660Z,8.70
2023-11-07T01:33:57.530Z,8.62
2023-11-07T01:36:25.534Z,8.60
2023-11-07T01:38:54.624Z,8.60
2023-11-07T01:41:22.694Z,8.60
2023-11-07T01:43:50.512Z,8.50
2023-11-07T01:46:18.397Z,8.50
2023-11-07T01:48:47.753Z,8.50
2023-11-07T01:51:15.803Z,8.42
2023-11-07T01:53:44.134Z,8.40
2023-11-07T01:56:12.812Z,8.40
2023-11-07T01:58:41.067Z,8.40
2023-11-07T02:01:09.091Z,8.30
2023-11-07T02:03:39.515Z,8.30
2023-11-07T02:06:08.346Z,8.30
2023-11-07T02:08:36.415Z,8.22
2023-11-07T02:11:05.497Z,8.20
2023-11-07T02:13:33.780Z,8.20
2023-11-07T02:16:01.610Z,8.20
2023-11-07T02:18:29.522Z,8.16
2023-11-07T02:20:57.661Z,8.12
2023-11-07T02:23:35.589Z,8.10
2023-11-07T02:26:03.919Z,8.10
2023-11-07T02:28:32.973Z,8.10
2023-11-07T02:31:01.046Z,8.00
2023-11-07T02:33:28.992Z,8.00
2023-11-07T02:35:56.917Z,8.00
2023-11-07T02:38:24.853Z,8.00
2023-11-07T02:40:52.627Z,7.98
2023-11-07T02:43:21.138Z,7.94
2023-11-07T02:45:50.150Z,7.90
2023-11-07T02:48:18.210Z,7.90
2023-11-07T02:50:46.307Z,7.90
2023-11-07T02:53:15.316Z,7.90
2023-11-07T02:55:43.520Z,7.90
2023-11-07T02:58:12.285Z,7.90
2023-11-07T03:00:40.220Z,7.80
2023-11-07T03:03:09.631Z,7.80
2023-11-07T03:05:37.967Z,7.80
2023-11-07T03:08:07.867Z,7.76
2023-11-07T03:10:36.141Z,7.70
2023-11-07T03:13:04.599Z,7.70
2023-11-07T03:15:33.203Z,7.70
2023-11-07T03:18:01.357Z,7.80
2023-11-07T03:20:29.345Z,7.80
2023-11-07T03:22:57.171Z,7.80
2023-11-07T03:25:25.017Z,7.80
2023-11-07T03:27:53.099Z,7.80
2023-11-07T03:30:21.440Z,7.80
2023-11-07T03:32:49.214Z,7.80
2023-11-07T03:35:18.939Z,7.80
2023-11-07T03:37:47.256Z,7.80
2023-11-07T03:40:15.138Z,7.80
2023-11-07T03:42:42.999Z,7.80
2023-11-07T03:45:11.199Z,7.80
2023-11-07T03:47:39.223Z,7.80
2023-11-07T03:50:08.293Z,7.80
2023-11-07T03:52:36.065Z,7.80
2023-11-07T03:55:04.466Z,7.80
2023-11-07T03:57:32.350Z,7.80
2023-11-07T04:00:00.269Z,7.80
2023-11-07T04:02:28.304Z,7.80
2023-11-07T04:04:56.196Z,7.80
2023-11-07T04:07:23.973Z,7.90
2023-11-07T04:09:52.199Z,7.90
2023-11-07T04:12:20.005Z,7.90
2023-11-07T04:14:47.833Z,7.90
2023-11-07T04:17:16.800Z,7.96
2023-11-07T04:19:44.715Z,8.00
2023-11-07T04:22:12.470Z,8.00
2023-11-07T04:24:40.213Z,8.00
2023-11-07T04:27:09.037Z,8.10
2023-11-07T04:29:38.387Z,8.10
2023-11-07T04:32:06.613Z,8.10
2023-11-07T04:34:35.770Z,8.10
2023-11-07T04:37:04.611Z,8.10
2023-11-07T04:39:32.433Z,8.18
2023-11-07T04:42:00.331Z,8.20
2023-11-07T04:44:28.752Z,8.20
2023-11-07T04:46:56.557Z,8.20
2023-11-07T04:49:24.605Z,8.24
2023-11-07T04:51:52.581Z,8.30
2023-11-07T04:54:20.354Z,8.30
2023-11-07T04:56:48.227Z,8.30
2023-11-07T04:59:16.144Z,8.34
2023-11-07T05:01:46.637Z,8.30
2023-11-07T05:04:15.497Z,8.30
2023-11-07T05:06:44.017Z,8.32
2023-11-07T05:09:13.726Z,8.30
2023-11-07T05:11:41.920Z,8.32
2023-11-07T05:14:10.360Z,8.38
2023-11-07T05:16:39.937Z,8.40
2023-11-07T05:19:10.946Z,8.40
2023-11-07T05:21:38.752Z,8.40
2023-11-07T05:24:07.190Z,8.40
2023-11-07T05:26:35.084Z,8.40
2023-11-07T05:29:02.867Z,8.42
2023-11-07T05:31:32.709Z,8.50
2023-11-07T05:34:01.884Z,8.50
2023-11-07T05:36:29.684Z,8.50
2023-11-07T05:38:57.711Z,8.58
2023-11-07T05:41:26.424Z,8.60
2023-11-07T05:43:54.209Z,8.60
2023-11-07T05:46:22.952Z,8.68
2023-11-07T05:48:53.674Z,8.70
2023-11-07T05:51:24.880Z,8.70
2023-11-07T05:53:52.716Z,8.80
2023-11-07T05:56:20.663Z,8.80
2023-11-07T05:58:50.646Z,8.80
2023-11-07T06:01:19.275Z,8.90
2023-11-07T06:03:47.161Z,8.90
2023-11-07T06:06:15.490Z,9.00
2023-11-07T06:08:43.489Z,9.00
2023-11-07T06:11:11.305Z,9.04
2023-11-07T06:13:39.055Z,9.10
2023-11-07T06:16:07.638Z,9.10
2023-11-07T06:18:35.463Z,9.14
2023-11-07T06:21:05.206Z,9.20
2023-11-07T06:23:32.998Z,9.20
2023-11-07T06:26:00.904Z,9.20
2023-11-07T06:28:30.124Z,9.22
2023-11-07T06:30:57.919Z,9.30
2023-11-07T06:33:25.810Z,9.32
2023-11-07T06:35:53.896Z,9.40
2023-11-07T06:38:26.724Z,9.40
2023-11-07T06:40:57.020Z,9.48
2023-11-07T06:43:26.435Z,9.50
2023-11-07T06:45:54.348Z,9.50
2023-11-07T06:48:22.307Z,9.54
2023-11-07T06:50:50.230Z,9.60
2023-11-07T06:53:18.099Z,9.60
2023-11-07T06:55:45.873Z,9.60
2023-11-07T06:58:13.670Z,9.60
2023-11-07T07:00:43.769Z,9.68
2023-11-07T07:03:11.799Z,9.70
2023-11-07T07:05:39.785Z,9.70
2023-11-07T07:08:09.604Z,9.70
2023-11-07T07:10:39.430Z,9.70
2023-11-07T07:13:07.192Z,9.70
2023-11-07T07:15:35.012Z,9.70
2023-11-07T07:18:06.594Z,9.74
2023-11-07T07:20:38.119Z,9.80
2023-11-07T07:23:10.206Z,9.82
2023-11-07T07:25:38.558Z,9.90
2023-11-07T07:28:09.737Z,10.00
2023-11-07T07:30:38.954Z,10.10
2023-11-07T07:33:10.347Z,10.50
2023-11-07T07:35:38.901Z,10.88
2023-11-07T07:38:10.322Z,11.10
2023-11-07T07:40:39.578Z,11.30
2023-11-07T07:43:11.202Z,11.48
2023-11-07T07:45:44.017Z,11.70
2023-11-07T07:48:13.081Z,11.80
2023-11-07T07:50:43.428Z,11.90
2023-11-07T07:53:12.053Z,12.10
2023-11-07T07:55:44.853Z,12.30
2023-11-07T07:58:19.865Z,12.50
2023-11-07T08:00:51.213Z,12.70
2023-11-07T08:03:20.445Z,12.80
2023-11-07T08:05:52.864Z,12.74
2023-11-07T08:08:20.796Z,12.64
2023-11-07T08:10:50.080Z,12.60
2023-11-07T08:13:19.707Z,12.50
2023-11-07T08:15:50.087Z,12.40
2023-11-07T08:18:19.027Z,12.40
2023-11-07T08:20:47.192Z,12.40
2023-11-07T08:23:15.056Z,12.34
2023-11-07T08:25:42.810Z,12.30
2023-11-07T08:28:11.336Z,12.30
2023-11-07T08:30:39.694Z,12.24
2023-11-07T08:33:09.016Z,12.20
2023-11-07T08:35:40.349Z,12.20
2023-11-07T08:38:08.331Z,12.20
2023-11-07T08:40:36.760Z,12.20
2023-11-07T08:43:04.964Z,12.20
2023-11-07T08:45:34.357Z,12.24
2023-11-07T08:48:02.752Z,12.30
2023-11-07T08:50:30.763Z,12.30
2023-11-07T08:52:58.943Z,12.30
2023-11-07T08:55:27.446Z,12.40
2023-11-07T08:57:55.421Z,12.40
2023-11-07T09:00:24.157Z,12.50
2023-11-07T09:02:54.010Z,12.60
2023-11-07T09:05:23.720Z,12.60
2023-11-07T09:07:51.890Z,12.60
2023-11-07T09:10:21.680Z,12.64
2023-11-07T09:12:49.748Z,12.62
2023-11-07T09:15:21.267Z,12.60
2023-11-07T09:17:49.443Z,12.60
2023-11-07T09:20:17.669Z,12.60
2023-11-07T09:22:47.211Z,12.58
2023-11-07T09:25:15.154Z,12.52
2023-11-07T09:27:43.115Z,12.50
2023-11-07T09:30:12.635Z,12.52
2023-11-07T09:32:44.685Z,12.60
2023-11-07T09:35:12.868Z,12.60
2023-11-07T09:37:41.546Z,12.70
2023-11-07T09:40:14.494Z,12.80
2023-11-07T09:42:42.692Z,12.90
2023-11-07T09:45:16.315Z,12.90
2023-11-07T09:47:49.348Z,13.00
2023-11-07T09:50:22.947Z,13.00
2023-11-07T09:52:54.223Z,13.08
2023-11-07T09:55:29.277Z,13.10
2023-11-07T09:58:15.917Z,13.10
2023-11-07T10:00:46.597Z,13.02
2023-11-07T10:03:15.840Z,13.08
2023-11-07T10:05:47.699Z,13.00
2023-11-07T10:08:17.558Z,13.02
2023-11-07T10:11:08.094Z,13.10
2023-11-07T10:13:36.140Z,13.10
2023-11-07T10:18:49.814Z,13.20
2023-11-07T10:21:32.312Z,13.20
2023-11-07T10:24:00.912Z,13.20
2023-11-07T10:26:28.869Z,13.20
2023-11-07T10:29:18.228Z,13.20
2023-11-07T10:32:00.602Z,13.28
2023-11-07T10:34:28.468Z,13.20
2023-11-07T10:36:56.813Z,13.22
2023-11-07T10:39:27.248Z,13.24
2023-11-07T10:41:56.541Z,13.20
2023-11-07T10:44:31.506Z,13.20
2023-11-07T10:46:59.935Z,13.20
2023-11-07T10:49:27.794Z,13.24
2023-11-07T10:51:56.968Z,13.20
2023-11-07T10:54:31.385Z,13.22
2023-11-07T10:57:06.375Z,13.20
2023-11-07T10:59:36.537Z,13.20
2023-11-07T11:02:05.307Z,13.30
2023-11-07T11:04:37.938Z,13.26
2023-11-07T11:07:08.731Z,13.30
2023-11-07T11:09:36.842Z,13.30
2023-11-07T11:12:05.759Z,13.30
2023-11-07T11:14:34.248Z,13.30
2023-11-07T11:17:39.845Z,13.28
2023-11-07T11:20:36.346Z,13.20
2023-11-07T11:23:19.723Z,13.10
2023-11-07T11:26:06.004Z,13.10
2023-11-07T11:28:42.172Z,13.10
2023-11-07T11:31:19.889Z,13.10
2023-11-07T11:33:48.495Z,13.10
2023-11-07T11:36:40.862Z,13.18
2023-11-07T11:39:30.689Z,13.20
2023-11-07T11:42:01.760Z,13.30
2023-11-07T11:44:30.666Z,13.30
2023-11-07T11:47:01.784Z,13.40
2023-11-07T11:49:29.651Z,13.40
2023-11-07T11:51:58.906Z,13.40
2023-11-07T11:54:33.959Z,13.50
2023-11-07T11:57:04.448Z,13.50
2023-11-07T11:59:54.455Z,13.50
2023-11-07T12:02:43.672Z,13.50
2023-11-07T12:05:19.909Z,13.42
2023-11-07T12:07:49.821Z,13.40
2023-11-07T12:10:22.897Z,13.40
2023-11-07T12:12:59.263Z,13.32
2023-11-07T12:15:28.137Z,13.30
2023-11-07T12:17:56.243Z,13.30
2023-11-07T12:20:24.210Z,13.40
2023-11-07T12:22:52.538Z,13.44
2023-11-07T12:25:22.278Z,13.50
2023-11-07T12:28:06.010Z,13.60
2023-11-07T12:30:38.337Z,13.70
2023-11-07T12:33:11.910Z,13.80
2023-11-07T12:35:40.481Z,13.90
2023-11-07T12:38:11.449Z,14.00
2023-11-07T12:40:41.256Z,14.00
2023-11-07T12:43:09.889Z,14.06
2023-11-07T12:45:39.753Z,14.10
2023-11-07T12:48:13.847Z,14.20
2023-11-07T12:50:48.509Z,14.28
2023-11-07T12:53:19.789Z,14.34
2023-11-07T12:55:55.447Z,14.38
2023-11-07T12:58:34.484Z,14.40
2023-11-07T13:01:05.877Z,14.50
2023-11-07T13:03:35.379Z,14.50
2023-11-07T13:06:13.724Z,14.60
2023-11-07T13:08:47.213Z,14.66
2023-11-07T13:11:25.341Z,14.70
2023-11-07T13:13:53.251Z,14.90
2023-11-07T13:16:21.440Z,14.98
2023-11-07T13:18:58.439Z,15.00
2023-11-07T13:21:27.266Z,15.20
2023-11-07T13:23:55.346Z,15.30
2023-11-07T13:26:24.457Z,15.38
2023-11-07T13:28:52.462Z,15.38
2023-11-07T13:31:20.419Z,15.30
2023-11-07T13:33:50.894Z,15.20
2023-11-07T13:36:18.807Z,15.10
2023-11-07T13:38:49.501Z,14.96
2023-11-07T13:41:17.788Z,14.80
2023-11-07T13:43:45.932Z,14.70
2023-11-07T13:46:18.840Z,14.52
2023-11-07T13:48:49.822Z,14.40
2023-11-07T13:51:17.928Z,14.26
2023-11-07T13:53:46.713Z,14.10
2023-11-07T13:56:15.611Z,14.00
2023-11-07T13:58:44.473Z,13.90
2023-11-07T14:01:13.796Z,13.72
2023-11-07T14:03:41.959Z,13.60
2023-11-07T14:06:10.163Z,13.52
2023-11-07T14:08:38.120Z,13.40
2023-11-07T14:11:05.913Z,13.32
2023-11-07T14:13:33.731Z,13.30
2023-11-07T14:16:01.614Z,13.20
2023-11-07T14:18:32.433Z,13.10
2023-11-07T14:21:03.701Z,13.10
2023-11-07T14:23:32.019Z,13.00
2023-11-07T14:26:00.017Z,12.90
2023-11-07T14:28:28.481Z,12.90
2023-11-07T14:31:00.320Z,12.80
2023-11-07T14:33:30.853Z,12.72
2023-11-07T14:36:00.757Z,12.70
2023-11-07T14:38:35.082Z,12.60
2023-11-07T14:41:08.669Z,12.60
2023-11-07T14:43:37.334Z,12.50
2023-11-07T14:46:06.731Z,12.40
2023-11-07T14:48:35.575Z,12.40
2023-11-07T14:51:04.040Z,12.30
2023-11-07T14:53:31.941Z,12.20
2023-11-07T14:55:59.969Z,12.20
2023-11-07T14:58:27.832Z,12.12
2023-11-07T15:00:58.163Z,12.10
2023-11-07T15:03:26.522Z,12.00
2023-11-07T15:05:55.363Z,12.00
2023-11-07T15:08:23.650Z,11.90
2023-11-07T15:10:51.536Z,11.84
2023-11-07T15:13:19.527Z,11.80
2023-11-07T15:15:47.714Z,11.70
2023-11-07T15:18:15.827Z,11.70
2023-11-07T15:20:44.118Z,11.60
2023-11-07T15:23:11.993Z,11.50
2023-11-07T15:25:40.952Z,11.50
2023-11-07T15:28:09.500Z,11.40
2023-11-07T15:30:37.388Z,11.40
2023-11-07T15:33:05.540Z,11.30
2023-11-07T15:35:38.219Z,11.30
2023-11-07T15:38:08.169Z,11.20
2023-11-07T15:40:36.789Z,11.20
2023-11-07T15:43:06.192Z,11.10
2023-11-07T15:45:35.398Z,11.10
2023-11-07T15:48:09.272Z,11.10
2023-11-07T15:50:38.920Z,11.10
2023-11-07T15:53:09.981Z,11.00
2023-11-07T15:55:40.565Z,11.06
2023-11-07T15:58:09.856Z,11.00
2023-11-07T16:00:37.915Z,11.00
2023-11-07T16:03:06.802Z,11.06
2023-11-07T16:05:36.905Z,11.10
2023-11-07T16:08:10.190Z,11.10
2023-11-07T16:10:38.167Z,11.10
2023-11-07T16:13:06.708Z,11.10
2023-11-07T16:15:35.109Z,11.10
2023-11-07T16:18:03.893Z,11.10
2023-11-07T16:20:32.440Z,11.10
2023-11-07T16:23:00.712Z,11.16
2023-11-07T16:25:28.610Z,11.18
2023-11-07T16:27:57.528Z,11.20
2023-11-07T16:30:25.530Z,11.20
2023-11-07T16:32:53.614Z,11.20
2023-11-07T16:35:21.796Z,11.20
2023-11-07T16:37:52.706Z,11.20
2023-11-07T16:40:20.789Z,11.28
2023-11-07T16:42:52.861Z,11.30
2023-11-07T16:45:20.872Z,11.30
2023-11-07T16:47:52.666Z,11.30
2023-11-07T16:50:21.915Z,11.30
2023-11-07T16:52:50.566Z,11.30
2023-11-07T16:55:18.309Z,11.32
2023-11-07T16:57:46.569Z,11.34
2023-11-07T17:00:19.124Z,11.34
2023-11-07T17:02:47.851Z,11.38
2023-11-07T17:05:16.722Z,11.40
2023-11-07T17:07:45.674Z,11.40
2023-11-07T17:10:13.822Z,11.40
2023-11-07T17:12:41.747Z,11.40
2023-11-07T17:15:12.850Z,11.40
2023-11-07T17:17:41.523Z,11.40
2023-11-07T17:20:09.982Z,11.40
2023-11-07T17:22:38.828Z,11.40
2023-11-07T17:25:08.013Z,11.40
2023-11-07T17:27:36.409Z,11.40
2023-11-07T17:30:05.523Z,11.40
2023-11-07T17:32:33.518Z,11.40
2023-11-07T17:35:04.865Z,11.38
2023-11-07T17:37:34.215Z,11.32
2023-11-07T17:40:02.293Z,11.30
2023-11-07T17:42:30.441Z,11.30
2023-11-07T17:44:58.746Z,11.30
2023-11-07T17:47:27.061Z,11.34
2023-11-07T17:49:56.560Z,11.30
2023-11-07T17:52:24.498Z,11.32
2023-11-07T17:54:52.753Z,11.30
2023-11-07T17:57:23.579Z,11.32
2023-11-07T17:59:53.929Z,11.30
2023-11-07T18:02:24.070Z,11.30
2023-11-07T18:04:52.044Z,11.30
2023-11-07T18:07:22.653Z,11.30
2023-11-07T18:09:51.371Z,11.30
2023-11-07T18:12:20.995Z,11.30
2023-11-07T18:14:49.274Z,11.30
2023-11-07T18:17:17.220Z,11.30
2023-11-07T18:19:45.193Z,11.30
2023-11-07T18:22:13.301Z,11.30
2023-11-07T18:24:41.310Z,11.30
2023-11-07T18:27:09.225Z,11.26
2023-11-07T18:29:38.044Z,11.22
2023-11-07T18:32:08.079Z,11.20
2023-11-07T18:34:36.575Z,11.20
2023-11-07T18:37:06.378Z,11.20
2023-11-07T18:39:36.707Z,11.20
2023-11-07T18:42:05.320Z,11.20
2023-11-07T18:44:36.904Z,11.10
2023-11-07T18:47:06.243Z,11.10
2023-11-07T18:49:34.790Z,11.00
2023-11-07T18:52:03.838Z,11.00
2023-11-07T18:54:32.080Z,11.00
2023-11-07T18:57:00.181Z,11.00
2023-11-07T18:59:34.741Z,11.00
2023-11-07T19:02:07.623Z,11.00
2023-11-07T19:04:40.581Z,11.00
2023-11-07T19:07:09.000Z,11.00
2023-11-07T19:09:37.101Z,11.00
2023-11-07T19:12:07.898Z,11.00
2023-11-07T19:14:39.861Z,11.00
2023-11-07T19:17:08.821Z,11.00
2023-11-07T19:19:37.496Z,11.00
2023-11-07T19:22:05.343Z,11.00
2023-11-07T19:24:33.243Z,10.90
2023-11-07T19:27:04.064Z,10.90
2023-11-07T19:29:31.952Z,10.90
2023-11-07T19:32:00.985Z,10.90
2023-11-07T19:34:29.049Z,10.90
2023-11-07T19:36:57.234Z,10.82
2023-11-07T19:39:31.123Z,10.80
2023-11-07T19:42:03.961Z,10.80
2023-11-07T19:44:35.418Z,10.80
2023-11-07T19:47:04.306Z,10.80
2023-11-07T19:49:33.330Z,10.80
2023-11-07T19:52:03.817Z,10.80
2023-11-07T19:54:31.933Z,10.80
2023-11-07T19:57:00.594Z,10.80
2023-11-07T19:59:28.468Z,10.80
2023-11-07T20:01:56.910Z,10.80
2023-11-07T20:04:25.559Z,10.76
2023-11-07T20:06:53.822Z,10.70
2023-11-07T20:09:22.883Z,10.70
2023-11-07T20:11:50.877Z,10.70
2023-11-07T20:14:19.274Z,10.70
2023-11-07T20:16:48.024Z,10.70
2023-11-07T20:19:16.212Z,10.70
2023-11-07T20:21:44.352Z,10.70
2023-11-07T20:24:12.635Z,10.70
2023-11-07T20:26:40.516Z,10.60
2023-11-07T20:29:08.311Z,10.60
2023-11-07T20:31:36.152Z,10.60
2023-11-07T20:34:04.051Z,10.60
2023-11-07T20:36:31.972Z,10.60
2023-11-07T20:39:01.204Z,10.60
2023-11-07T20:41:31.059Z,10.60
2023-11-07T20:43:58.816Z,10.60
2023-11-07T20:46:33.395Z,10.60
2023-11-07T20:49:04.082Z,10.60
2023-11-07T20:51:35.508Z,10.60
2023-11-07T20:54:04.815Z,10.60
2023-11-07T20:56:33.939Z,10.60
2023-11-07T20:59:04.327Z,10.60
2023-11-07T21:01:32.282Z,10.52
2023-11-07T21:04:01.379Z,10.50
2023-11-07T21:06:29.541Z,10.50
2023-11-07T21:08:57.743Z,10.50
2023-11-07T21:11:25.911Z,10.44
2023-11-07T21:13:54.110Z,10.40
2023-11-07T21:16:23.719Z,10.40
2023-11-07T21:18:51.967Z,10.40
2023-11-07T21:21:21.271Z,10.40
2023-11-07T21:23:49.235Z,10.40
2023-11-07T21:26:17.324Z,10.40
2023-11-07T21:28:45.874Z,10.40
2023-11-07T21:31:14.152Z,10.40
2023-11-07T21:33:42.304Z,10.36
2023-11-07T21:36:12.157Z,10.30
2023-11-07T21:38:40.198Z,10.30
2023-11-07T21:41:08.014Z,10.30
2023-11-07T21:43:35.886Z,10.30
2023-11-07T21:46:04.662Z,10.28
2023-11-07T21:48:32.838Z,10.20
2023-11-07T21:51:00.917Z,10.20
2023-11-07T21:53:30.256Z,10.20
2023-11-07T21:55:59.090Z,10.20
2023-11-07T21:58:26.952Z,10.20
2023-11-07T22:00:54.831Z,10.20
2023-11-07T22:03:23.014Z,10.10
2023-11-07T22:05:50.878Z,10.10
2023-11-07T22:08:19.205Z,10.08
2023-11-07T22:10:48.955Z,10.00
2023-11-07T22:13:16.982Z,10.00
2023-11-07T22:15:45.026Z,9.98
2023-11-07T22:18:13.127Z,9.90
2023-11-07T22:20:42.817Z,9.90
2023-11-07T22:23:10.979Z,9.90
2023-11-07T22:25:38.917Z,9.80
2023-11-07T22:28:08.949Z,9.80
2023-11-07T22:30:36.859Z,9.70
2023-11-07T22:33:05.126Z,9.70
2023-11-07T22:35:34.647Z,9.60
2023-11-07T22:38:04.306Z,9.60
2023-11-07T22:40:32.175Z,9.50
2023-11-07T22:43:00.529Z,9.46
2023-11-07T22:45:28.464Z,9.40
2023-11-07T22:47:56.462Z,9.40
2023-11-07T22:50:24.908Z,9.30
2023-11-07T22:52:52.696Z,9.20
2023-11-07T22:55:21.392Z,9.20
2023-11-07T22:57:49.413Z,9.14
2023-11-07T23:00:28.978Z,9.10
2023-11-07T23:03:01.603Z,9.00
2023-11-07T23:05:29.717Z,9.00
2023-11-07T23:07:57.544Z,8.98
2023-11-07T23:10:25.340Z,8.90
2023-11-07T23:12:53.421Z,8.90
2023-11-07T23:15:21.264Z,8.80
2023-11-07T23:17:49.314Z,8.80
2023-11-07T23:20:18.051Z,8.70
2023-11-07T23:22:45.746Z,8.70
2023-11-07T23:25:14.200Z,8.60
2023-11-07T23:27:42.414Z,8.60
2023-11-07T23:30:11.204Z,8.50
2023-11-07T23:32:39.649Z,8.46
2023-11-07T23:35:08.579Z,8.40
2023-11-07T23:37:36.882Z,8.30
2023-11-07T23:40:11.612Z,8.30
2023-11-07T23:42:42.552Z,8.28
2023-11-07T23:45:11.055Z,8.20
2023-11-07T23:47:41.295Z,8.20
2023-11-07T23:50:11.300Z,8.14
2023-11-07T23:52:40.439Z,8.10
2023-11-07T23:55:09.365Z,8.10
2023-11-07T23:57:37.589Z,8.00
